sensor_id;sensor_type;location;lat;lon;timestamp;P1;durP1;ratioP1;P2;durP2;ratioP2
80758;SDS011;70150;45.582;10.178;2023-11-19T00:00:09;7.85;;;3.80;;
80758;SDS011;70150;45.582;10.178;2023-11-19T00:02:38;6.20;;;3.20;;
80758;SDS011;70150;45.582;10.178;2023-11-19T00:05:06;9.50;;;3.40;;
80758;SDS011;70150;45.582;10.178;2023-11-19T00:07:35;5.10;;;3.00;;
80758;SDS011;70150;45.582;10.178;2023-11-19T00:10:01;8.90;;;4.45;;
80758;SDS011;70150;45.582;10.178;2023-11-19T00:12:32;10.23;;;4.75;;
80758;SDS011;70150;45.582;10.178;2023-11-19T00:14:57;13.43;;;5.20;;
80758;SDS011;70150;45.582;10.178;2023-11-19T00:17:23;8.80;;;4.50;;
80758;SDS011;70150;45.582;10.178;2023-11-19T00:19:49;8.95;;;5.05;;
80758;SDS011;70150;45.582;10.178;2023-11-19T00:22:17;12.88;;;5.35;;
80758;SDS011;70150;45.582;10.178;2023-11-19T00:24:45;11.57;;;5.35;;
80758;SDS011;70150;45.582;10.178;2023-11-19T00:27:10;12.90;;;5.32;;
80758;SDS011;70150;45.582;10.178;2023-11-19T00:29:38;12.20;;;5.85;;
80758;SDS011;70150;45.582;10.178;2023-11-19T00:32:05;9.15;;;4.90;;
80758;SDS011;70150;45.582;10.178;2023-11-19T00:34:31;11.98;;;5.20;;
80758;SDS011;70150;45.582;10.178;2023-11-19T00:36:57;15.15;;;5.45;;
80758;SDS011;70150;45.582;10.178;2023-11-19T00:39:22;10.13;;;5.13;;
80758;SDS011;70150;45.582;10.178;2023-11-19T00:41:48;8.65;;;4.60;;
80758;SDS011;70150;45.582;10.178;2023-11-19T00:44:14;9.40;;;4.13;;
80758;SDS011;70150;45.582;10.178;2023-11-19T00:46:39;7.18;;;3.92;;
80758;SDS011;70150;45.582;10.178;2023-11-19T00:49:05;10.93;;;4.47;;
80758;SDS011;70150;45.582;10.178;2023-11-19T00:51:33;7.50;;;3.67;;
80758;SDS011;70150;45.582;10.178;2023-11-19T00:53:59;5.82;;;3.47;;
80758;SDS011;70150;45.582;10.178;2023-11-19T00:56:26;8.60;;;4.45;;
80758;SDS011;70150;45.582;10.178;2023-11-19T00:58:53;9.57;;;4.65;;
80758;SDS011;70150;45.582;10.178;2023-11-19T01:01:21;6.90;;;3.55;;
80758;SDS011;70150;45.582;10.178;2023-11-19T01:03:46;5.88;;;3.58;;
80758;SDS011;70150;45.582;10.178;2023-11-19T01:06:12;8.38;;;4.10;;
80758;SDS011;70150;45.582;10.178;2023-11-19T01:08:42;11.02;;;5.30;;
80758;SDS011;70150;45.582;10.178;2023-11-19T01:11:18;7.88;;;4.10;;
80758;SDS011;70150;45.582;10.178;2023-11-19T01:13:46;6.45;;;3.65;;
80758;SDS011;70150;45.582;10.178;2023-11-19T01:16:11;7.85;;;4.28;;
80758;SDS011;70150;45.582;10.178;2023-11-19T01:18:38;6.18;;;3.53;;
80758;SDS011;70150;45.582;10.178;2023-11-19T01:21:04;8.35;;;4.28;;
80758;SDS011;70150;45.582;10.178;2023-11-19T01:23:30;9.32;;;4.65;;
80758;SDS011;70150;45.582;10.178;2023-11-19T01:25:55;7.80;;;4.00;;
80758;SDS011;70150;45.582;10.178;2023-11-19T01:28:21;7.75;;;4.35;;
80758;SDS011;70150;45.582;10.178;2023-11-19T01:30:47;9.80;;;4.32;;
80758;SDS011;70150;45.582;10.178;2023-11-19T01:33:16;7.85;;;4.00;;
80758;SDS011;70150;45.582;10.178;2023-11-19T01:35:41;7.43;;;4.22;;
80758;SDS011;70150;45.582;10.178;2023-11-19T01:38:07;9.15;;;4.38;;
80758;SDS011;70150;45.582;10.178;2023-11-19T01:40:34;9.23;;;4.47;;
80758;SDS011;70150;45.582;10.178;2023-11-19T01:45:27;7.70;;;4.00;;
80758;SDS011;70150;45.582;10.178;2023-11-19T01:47:54;8.07;;;4.63;;
80758;SDS011;70150;45.582;10.178;2023-11-19T01:50:21;7.45;;;4.65;;
80758;SDS011;70150;45.582;10.178;2023-11-19T01:52:47;7.43;;;4.20;;
80758;SDS011;70150;45.582;10.178;2023-11-19T01:55:13;7.20;;;4.20;;
80758;SDS011;70150;45.582;10.178;2023-11-19T01:57:39;7.30;;;4.35;;
80758;SDS011;70150;45.582;10.178;2023-11-19T02:00:07;9.00;;;4.43;;
80758;SDS011;70150;45.582;10.178;2023-11-19T02:02:36;9.18;;;4.60;;
80758;SDS011;70150;45.582;10.178;2023-11-19T02:05:05;7.32;;;4.43;;
80758;SDS011;70150;45.582;10.178;2023-11-19T02:07:31;7.20;;;4.45;;
80758;SDS011;70150;45.582;10.178;2023-11-19T02:09:57;7.93;;;4.40;;
80758;SDS011;70150;45.582;10.178;2023-11-19T02:12:25;9.60;;;4.65;;
80758;SDS011;70150;45.582;10.178;2023-11-19T02:14:54;6.60;;;4.38;;
80758;SDS011;70150;45.582;10.178;2023-11-19T02:19:52;8.70;;;4.47;;
80758;SDS011;70150;45.582;10.178;2023-11-19T02:22:18;8.60;;;4.35;;
80758;SDS011;70150;45.582;10.178;2023-11-19T02:24:44;7.40;;;4.38;;
80758;SDS011;70150;45.582;10.178;2023-11-19T02:27:16;8.10;;;4.03;;
80758;SDS011;70150;45.582;10.178;2023-11-19T02:29:54;7.47;;;4.18;;
80758;SDS011;70150;45.582;10.178;2023-11-19T02:32:19;8.18;;;4.80;;
80758;SDS011;70150;45.582;10.178;2023-11-19T02:34:45;9.85;;;5.05;;
80758;SDS011;70150;45.582;10.178;2023-11-19T02:37:11;11.27;;;4.82;;
80758;SDS011;70150;45.582;10.178;2023-11-19T02:39:37;9.02;;;4.65;;
80758;SDS011;70150;45.582;10.178;2023-11-19T02:42:03;9.32;;;5.13;;
80758;SDS011;70150;45.582;10.178;2023-11-19T02:44:28;10.75;;;5.45;;
80758;SDS011;70150;45.582;10.178;2023-11-19T02:46:55;11.15;;;5.22;;
80758;SDS011;70150;45.582;10.178;2023-11-19T02:49:24;10.85;;;5.50;;
80758;SDS011;70150;45.582;10.178;2023-11-19T02:51:52;8.77;;;5.13;;
80758;SDS011;70150;45.582;10.178;2023-11-19T02:54:20;9.00;;;4.85;;
80758;SDS011;70150;45.582;10.178;2023-11-19T02:59:20;8.10;;;4.68;;
80758;SDS011;70150;45.582;10.178;2023-11-19T03:01:53;10.90;;;5.10;;
80758;SDS011;70150;45.582;10.178;2023-11-19T03:04:19;10.55;;;5.20;;
80758;SDS011;70150;45.582;10.178;2023-11-19T03:06:46;9.70;;;4.88;;
80758;SDS011;70150;45.582;10.178;2023-11-19T03:09:12;8.27;;;4.78;;
80758;SDS011;70150;45.582;10.178;2023-11-19T03:11:37;10.57;;;4.68;;
80758;SDS011;70150;45.582;10.178;2023-11-19T03:14:03;9.23;;;5.07;;
80758;SDS011;70150;45.582;10.178;2023-11-19T03:16:29;10.30;;;4.93;;
80758;SDS011;70150;45.582;10.178;2023-11-19T03:18:55;9.95;;;4.97;;
80758;SDS011;70150;45.582;10.178;2023-11-19T03:23:56;7.53;;;4.82;;
80758;SDS011;70150;45.582;10.178;2023-11-19T03:26:25;7.85;;;4.93;;
80758;SDS011;70150;45.582;10.178;2023-11-19T03:28:52;10.68;;;4.90;;
80758;SDS011;70150;45.582;10.178;2023-11-19T03:31:20;9.38;;;5.07;;
80758;SDS011;70150;45.582;10.178;2023-11-19T03:33:46;7.90;;;5.03;;
80758;SDS011;70150;45.582;10.178;2023-11-19T03:36:12;8.48;;;4.90;;
80758;SDS011;70150;45.582;10.178;2023-11-19T03:38:38;11.00;;;4.95;;
80758;SDS011;70150;45.582;10.178;2023-11-19T03:43:39;7.65;;;4.18;;
80758;SDS011;70150;45.582;10.178;2023-11-19T03:46:14;8.65;;;4.70;;
80758;SDS011;70150;45.582;10.178;2023-11-19T03:48:42;8.73;;;4.53;;
80758;SDS011;70150;45.582;10.178;2023-11-19T03:51:08;10.25;;;4.82;;
80758;SDS011;70150;45.582;10.178;2023-11-19T03:53:34;9.07;;;4.43;;
80758;SDS011;70150;45.582;10.178;2023-11-19T03:56:02;10.73;;;4.82;;
80758;SDS011;70150;45.582;10.178;2023-11-19T03:58:28;7.53;;;4.35;;
80758;SDS011;70150;45.582;10.178;2023-11-19T04:00:54;9.23;;;4.60;;
80758;SDS011;70150;45.582;10.178;2023-11-19T04:03:19;7.35;;;4.28;;
80758;SDS011;70150;45.582;10.178;2023-11-19T04:05:45;10.85;;;4.90;;
80758;SDS011;70150;45.582;10.178;2023-11-19T04:08:11;9.38;;;4.75;;
80758;SDS011;70150;45.582;10.178;2023-11-19T04:10:36;8.85;;;4.75;;
80758;SDS011;70150;45.582;10.178;2023-11-19T04:13:02;8.02;;;4.35;;
80758;SDS011;70150;45.582;10.178;2023-11-19T04:15:27;7.78;;;4.30;;
80758;SDS011;70150;45.582;10.178;2023-11-19T04:17:54;7.65;;;4.70;;
80758;SDS011;70150;45.582;10.178;2023-11-19T04:20:20;8.35;;;4.28;;
80758;SDS011;70150;45.582;10.178;2023-11-19T04:22:45;10.27;;;5.03;;
80758;SDS011;70150;45.582;10.178;2023-11-19T04:25:11;9.30;;;4.72;;
80758;SDS011;70150;45.582;10.178;2023-11-19T04:27:37;8.00;;;4.78;;
80758;SDS011;70150;45.582;10.178;2023-11-19T04:30:02;9.18;;;4.95;;
80758;SDS011;70150;45.582;10.178;2023-11-19T04:34:57;10.35;;;4.72;;
80758;SDS011;70150;45.582;10.178;2023-11-19T04:37:25;7.18;;;4.40;;
80758;SDS011;70150;45.582;10.178;2023-11-19T04:39:51;8.82;;;4.85;;
80758;SDS011;70150;45.582;10.178;2023-11-19T04:42:17;9.32;;;4.70;;
80758;SDS011;70150;45.582;10.178;2023-11-19T04:44:43;9.20;;;4.53;;
80758;SDS011;70150;45.582;10.178;2023-11-19T04:47:08;9.18;;;5.43;;
80758;SDS011;70150;45.582;10.178;2023-11-19T04:49:39;9.75;;;4.82;;
80758;SDS011;70150;45.582;10.178;2023-11-19T04:52:07;8.45;;;4.82;;
80758;SDS011;70150;45.582;10.178;2023-11-19T04:54:34;8.32;;;4.70;;
80758;SDS011;70150;45.582;10.178;2023-11-19T04:56:59;9.20;;;4.50;;
80758;SDS011;70150;45.582;10.178;2023-11-19T04:59:25;8.50;;;4.72;;
80758;SDS011;70150;45.582;10.178;2023-11-19T05:01:52;10.50;;;4.78;;
80758;SDS011;70150;45.582;10.178;2023-11-19T05:04:18;9.10;;;4.78;;
80758;SDS011;70150;45.582;10.178;2023-11-19T05:06:44;8.38;;;4.55;;
80758;SDS011;70150;45.582;10.178;2023-11-19T05:09:09;7.90;;;4.75;;
80758;SDS011;70150;45.582;10.178;2023-11-19T05:11:38;9.00;;;4.88;;
80758;SDS011;70150;45.582;10.178;2023-11-19T05:14:04;8.57;;;4.53;;
80758;SDS011;70150;45.582;10.178;2023-11-19T05:16:30;9.45;;;5.30;;
80758;SDS011;70150;45.582;10.178;2023-11-19T05:18:56;8.60;;;5.03;;
80758;SDS011;70150;45.582;10.178;2023-11-19T05:21:22;9.75;;;5.35;;
80758;SDS011;70150;45.582;10.178;2023-11-19T05:23:48;10.48;;;5.00;;
80758;SDS011;70150;45.582;10.178;2023-11-19T05:28:45;10.77;;;5.25;;
80758;SDS011;70150;45.582;10.178;2023-11-19T05:31:10;9.27;;;4.95;;
80758;SDS011;70150;45.582;10.178;2023-11-19T05:33:36;8.43;;;4.80;;
80758;SDS011;70150;45.582;10.178;2023-11-19T05:36:02;8.75;;;5.13;;
80758;SDS011;70150;45.582;10.178;2023-11-19T05:38:29;10.43;;;5.05;;
80758;SDS011;70150;45.582;10.178;2023-11-19T05:40:55;8.18;;;4.63;;
80758;SDS011;70150;45.582;10.178;2023-11-19T05:43:20;10.10;;;5.20;;
80758;SDS011;70150;45.582;10.178;2023-11-19T05:45:46;8.60;;;4.70;;
80758;SDS011;70150;45.582;10.178;2023-11-19T05:48:12;9.57;;;4.97;;
80758;SDS011;70150;45.582;10.178;2023-11-19T05:50:38;9.90;;;4.97;;
80758;SDS011;70150;45.582;10.178;2023-11-19T05:53:04;11.80;;;5.30;;
80758;SDS011;70150;45.582;10.178;2023-11-19T05:55:33;11.25;;;4.78;;
80758;SDS011;70150;45.582;10.178;2023-11-19T05:58:02;9.45;;;4.97;;
80758;SDS011;70150;45.582;10.178;2023-11-19T06:00:29;9.98;;;4.78;;
80758;SDS011;70150;45.582;10.178;2023-11-19T06:02:55;8.88;;;4.57;;
80758;SDS011;70150;45.582;10.178;2023-11-19T06:05:21;10.10;;;5.13;;
80758;SDS011;70150;45.582;10.178;2023-11-19T06:07:47;8.55;;;5.10;;
80758;SDS011;70150;45.582;10.178;2023-11-19T06:10:13;10.18;;;5.13;;
80758;SDS011;70150;45.582;10.178;2023-11-19T06:12:41;9.38;;;5.00;;
80758;SDS011;70150;45.582;10.178;2023-11-19T06:15:07;8.85;;;4.75;;
80758;SDS011;70150;45.582;10.178;2023-11-19T06:17:34;9.88;;;5.15;;
80758;SDS011;70150;45.582;10.178;2023-11-19T06:19:59;9.45;;;5.10;;
80758;SDS011;70150;45.582;10.178;2023-11-19T06:22:25;10.82;;;5.38;;
80758;SDS011;70150;45.582;10.178;2023-11-19T06:24:53;8.77;;;4.57;;
80758;SDS011;70150;45.582;10.178;2023-11-19T06:27:21;10.10;;;5.45;;
80758;SDS011;70150;45.582;10.178;2023-11-19T06:29:47;9.80;;;5.18;;
80758;SDS011;70150;45.582;10.178;2023-11-19T06:32:13;9.90;;;5.07;;
80758;SDS011;70150;45.582;10.178;2023-11-19T06:34:39;11.50;;;4.78;;
80758;SDS011;70150;45.582;10.178;2023-11-19T06:37:04;8.52;;;4.95;;
80758;SDS011;70150;45.582;10.178;2023-11-19T06:39:30;11.40;;;5.28;;
80758;SDS011;70150;45.582;10.178;2023-11-19T06:41:56;8.73;;;5.20;;
80758;SDS011;70150;45.582;10.178;2023-11-19T06:44:21;10.40;;;4.80;;
80758;SDS011;70150;45.582;10.178;2023-11-19T06:46:48;13.13;;;5.38;;
80758;SDS011;70150;45.582;10.178;2023-11-19T06:49:14;10.45;;;5.32;;
80758;SDS011;70150;45.582;10.178;2023-11-19T06:51:43;9.73;;;5.25;;
80758;SDS011;70150;45.582;10.178;2023-11-19T06:54:09;9.50;;;5.15;;
80758;SDS011;70150;45.582;10.178;2023-11-19T06:56:34;8.50;;;4.75;;
80758;SDS011;70150;45.582;10.178;2023-11-19T06:59:00;9.18;;;5.13;;
80758;SDS011;70150;45.582;10.178;2023-11-19T07:01:26;11.20;;;5.15;;
80758;SDS011;70150;45.582;10.178;2023-11-19T07:03:52;10.30;;;5.78;;
80758;SDS011;70150;45.582;10.178;2023-11-19T07:06:18;8.80;;;5.35;;
80758;SDS011;70150;45.582;10.178;2023-11-19T07:08:43;9.85;;;5.10;;
80758;SDS011;70150;45.582;10.178;2023-11-19T07:11:11;8.48;;;4.82;;
80758;SDS011;70150;45.582;10.178;2023-11-19T07:13:37;9.48;;;4.75;;
80758;SDS011;70150;45.582;10.178;2023-11-19T07:16:03;9.05;;;4.70;;
80758;SDS011;70150;45.582;10.178;2023-11-19T07:18:29;11.75;;;5.68;;
80758;SDS011;70150;45.582;10.178;2023-11-19T07:20:55;12.55;;;5.75;;
80758;SDS011;70150;45.582;10.178;2023-11-19T07:23:24;10.07;;;5.10;;
80758;SDS011;70150;45.582;10.178;2023-11-19T07:25:51;8.82;;;5.05;;
80758;SDS011;70150;45.582;10.178;2023-11-19T07:30:44;12.23;;;5.55;;
80758;SDS011;70150;45.582;10.178;2023-11-19T07:33:09;8.88;;;5.13;;
80758;SDS011;70150;45.582;10.178;2023-11-19T07:35:35;10.95;;;5.00;;
80758;SDS011;70150;45.582;10.178;2023-11-19T07:38:00;10.73;;;5.32;;
80758;SDS011;70150;45.582;10.178;2023-11-19T07:40:26;7.72;;;4.80;;
80758;SDS011;70150;45.582;10.178;2023-11-19T07:42:52;11.18;;;5.95;;
80758;SDS011;70150;45.582;10.178;2023-11-19T07:45:17;13.55;;;5.93;;
80758;SDS011;70150;45.582;10.178;2023-11-19T07:47:43;10.15;;;5.90;;
80758;SDS011;70150;45.582;10.178;2023-11-19T07:50:10;9.57;;;5.72;;
80758;SDS011;70150;45.582;10.178;2023-11-19T07:52:38;10.13;;;5.50;;
80758;SDS011;70150;45.582;10.178;2023-11-19T07:55:04;10.50;;;5.47;;
80758;SDS011;70150;45.582;10.178;2023-11-19T07:57:30;12.27;;;6.10;;
80758;SDS011;70150;45.582;10.178;2023-11-19T07:59:56;16.13;;;7.38;;
80758;SDS011;70150;45.582;10.178;2023-11-19T08:02:22;21.15;;;8.40;;
80758;SDS011;70150;45.582;10.178;2023-11-19T08:04:49;16.65;;;7.88;;
80758;SDS011;70150;45.582;10.178;2023-11-19T08:07:17;18.40;;;8.93;;
80758;SDS011;70150;45.582;10.178;2023-11-19T08:09:44;18.50;;;8.20;;
80758;SDS011;70150;45.582;10.178;2023-11-19T08:12:10;14.68;;;6.65;;
80758;SDS011;70150;45.582;10.178;2023-11-19T08:14:36;12.93;;;6.50;;
80758;SDS011;70150;45.582;10.178;2023-11-19T08:17:02;8.80;;;5.38;;
80758;SDS011;70150;45.582;10.178;2023-11-19T08:19:28;9.55;;;4.93;;
80758;SDS011;70150;45.582;10.178;2023-11-19T08:21:54;8.93;;;4.32;;
80758;SDS011;70150;45.582;10.178;2023-11-19T08:24:19;8.50;;;4.57;;
80758;SDS011;70150;45.582;10.178;2023-11-19T08:26:45;8.38;;;4.78;;
80758;SDS011;70150;45.582;10.178;2023-11-19T08:29:13;11.93;;;5.55;;
80758;SDS011;70150;45.582;10.178;2023-11-19T08:31:39;9.40;;;5.40;;
80758;SDS011;70150;45.582;10.178;2023-11-19T08:34:05;7.90;;;5.05;;
80758;SDS011;70150;45.582;10.178;2023-11-19T08:36:34;11.02;;;5.53;;
80758;SDS011;70150;45.582;10.178;2023-11-19T08:39:00;9.52;;;5.55;;
80758;SDS011;70150;45.582;10.178;2023-11-19T08:41:26;12.15;;;6.13;;
80758;SDS011;70150;45.582;10.178;2023-11-19T08:43:52;12.43;;;6.20;;
80758;SDS011;70150;45.582;10.178;2023-11-19T08:46:18;8.93;;;5.40;;
80758;SDS011;70150;45.582;10.178;2023-11-19T08:48:44;9.32;;;5.60;;
80758;SDS011;70150;45.582;10.178;2023-11-19T08:51:13;10.32;;;5.68;;
80758;SDS011;70150;45.582;10.178;2023-11-19T08:53:38;9.00;;;4.63;;
80758;SDS011;70150;45.582;10.178;2023-11-19T08:56:04;9.23;;;5.20;;
80758;SDS011;70150;45.582;10.178;2023-11-19T08:58:30;9.13;;;5.13;;
80758;SDS011;70150;45.582;10.178;2023-11-19T09:00:56;10.50;;;5.55;;
80758;SDS011;70150;45.582;10.178;2023-11-19T09:03:22;9.40;;;5.60;;
80758;SDS011;70150;45.582;10.178;2023-11-19T09:05:48;8.73;;;5.60;;
80758;SDS011;70150;45.582;10.178;2023-11-19T09:08:13;9.98;;;5.53;;
80758;SDS011;70150;45.582;10.178;2023-11-19T09:10:39;8.82;;;5.68;;
80758;SDS011;70150;45.582;10.178;2023-11-19T09:13:05;11.15;;;5.75;;
80758;SDS011;70150;45.582;10.178;2023-11-19T09:15:31;11.98;;;6.03;;
80758;SDS011;70150;45.582;10.178;2023-11-19T09:17:56;10.15;;;5.88;;
80758;SDS011;70150;45.582;10.178;2023-11-19T09:20:24;9.45;;;5.57;;
80758;SDS011;70150;45.582;10.178;2023-11-19T09:22:50;12.48;;;5.80;;
80758;SDS011;70150;45.582;10.178;2023-11-19T09:25:16;10.43;;;5.88;;
80758;SDS011;70150;45.582;10.178;2023-11-19T09:27:42;9.73;;;5.57;;
80758;SDS011;70150;45.582;10.178;2023-11-19T09:30:09;8.65;;;5.53;;
80758;SDS011;70150;45.582;10.178;2023-11-19T09:32:35;9.75;;;5.88;;
80758;SDS011;70150;45.582;10.178;2023-11-19T09:35:00;9.05;;;5.40;;
80758;SDS011;70150;45.582;10.178;2023-11-19T09:37:28;9.25;;;5.72;;
80758;SDS011;70150;45.582;10.178;2023-11-19T09:39:53;9.45;;;5.53;;
80758;SDS011;70150;45.582;10.178;2023-11-19T09:42:19;10.50;;;5.57;;
80758;SDS011;70150;45.582;10.178;2023-11-19T09:44:45;8.23;;;5.63;;
80758;SDS011;70150;45.582;10.178;2023-11-19T09:47:12;7.95;;;5.30;;
80758;SDS011;70150;45.582;10.178;2023-11-19T09:49:39;8.52;;;5.20;;
80758;SDS011;70150;45.582;10.178;2023-11-19T09:52:06;7.50;;;4.93;;
80758;SDS011;70150;45.582;10.178;2023-11-19T09:54:32;8.00;;;5.13;;
80758;SDS011;70150;45.582;10.178;2023-11-19T09:56:58;9.10;;;5.30;;
80758;SDS011;70150;45.582;10.178;2023-11-19T09:59:28;7.95;;;5.10;;
80758;SDS011;70150;45.582;10.178;2023-11-19T10:04:23;10.23;;;6.05;;
80758;SDS011;70150;45.582;10.178;2023-11-19T10:06:51;9.35;;;5.68;;
80758;SDS011;70150;45.582;10.178;2023-11-19T10:09:17;9.07;;;5.80;;
80758;SDS011;70150;45.582;10.178;2023-11-19T10:11:42;10.23;;;5.40;;
80758;SDS011;70150;45.582;10.178;2023-11-19T10:14:08;8.93;;;5.90;;
80758;SDS011;70150;45.582;10.178;2023-11-19T10:16:35;8.13;;;5.90;;
80758;SDS011;70150;45.582;10.178;2023-11-19T10:19:00;10.05;;;6.20;;
80758;SDS011;70150;45.582;10.178;2023-11-19T10:21:26;11.27;;;5.78;;
80758;SDS011;70150;45.582;10.178;2023-11-19T10:23:55;9.73;;;6.35;;
80758;SDS011;70150;45.582;10.178;2023-11-19T10:26:24;10.48;;;6.30;;
80758;SDS011;70150;45.582;10.178;2023-11-19T10:28:51;9.35;;;6.13;;
80758;SDS011;70150;45.582;10.178;2023-11-19T10:31:17;12.73;;;6.68;;
80758;SDS011;70150;45.582;10.178;2023-11-19T10:33:44;10.57;;;6.47;;
80758;SDS011;70150;45.582;10.178;2023-11-19T10:36:11;11.65;;;6.38;;
80758;SDS011;70150;45.582;10.178;2023-11-19T10:41:03;12.27;;;6.32;;
80758;SDS011;70150;45.582;10.178;2023-11-19T10:43:31;9.43;;;5.82;;
80758;SDS011;70150;45.582;10.178;2023-11-19T10:46:10;9.75;;;5.85;;
80758;SDS011;70150;45.582;10.178;2023-11-19T10:48:37;9.35;;;5.85;;
80758;SDS011;70150;45.582;10.178;2023-11-19T10:51:04;10.70;;;6.50;;
80758;SDS011;70150;45.582;10.178;2023-11-19T10:53:33;12.70;;;6.55;;
80758;SDS011;70150;45.582;10.178;2023-11-19T10:56:06;10.10;;;6.47;;
80758;SDS011;70150;45.582;10.178;2023-11-19T10:58:35;9.07;;;6.15;;
80758;SDS011;70150;45.582;10.178;2023-11-19T11:01:03;9.85;;;6.35;;
80758;SDS011;70150;45.582;10.178;2023-11-19T11:03:39;11.18;;;6.65;;
80758;SDS011;70150;45.582;10.178;2023-11-19T11:06:05;10.57;;;6.53;;
80758;SDS011;70150;45.582;10.178;2023-11-19T11:08:31;10.05;;;6.82;;
80758;SDS011;70150;45.582;10.178;2023-11-19T11:11:02;10.23;;;6.90;;
80758;SDS011;70150;45.582;10.178;2023-11-19T11:13:30;9.10;;;6.47;;
80758;SDS011;70150;45.582;10.178;2023-11-19T11:15:57;10.35;;;6.38;;
80758;SDS011;70150;45.582;10.178;2023-11-19T11:18:23;11.15;;;6.40;;
80758;SDS011;70150;45.582;10.178;2023-11-19T11:33:33;9.93;;;6.13;;
80758;SDS011;70150;45.582;10.178;2023-11-19T11:36:07;8.90;;;5.93;;
80758;SDS011;70150;45.582;10.178;2023-11-19T11:38:41;12.73;;;5.82;;
80758;SDS011;70150;45.582;10.178;2023-11-19T11:49:01;10.13;;;5.88;;
80758;SDS011;70150;45.582;10.178;2023-11-19T11:54:02;10.40;;;5.57;;
80758;SDS011;70150;45.582;10.178;2023-11-19T11:56:32;11.57;;;5.90;;
80758;SDS011;70150;45.582;10.178;2023-11-19T11:58:59;9.40;;;5.50;;
80758;SDS011;70150;45.582;10.178;2023-11-19T12:01:25;10.85;;;5.13;;
80758;SDS011;70150;45.582;10.178;2023-11-19T12:03:55;9.95;;;5.78;;
80758;SDS011;70150;45.582;10.178;2023-11-19T12:06:21;9.07;;;5.38;;
80758;SDS011;70150;45.582;10.178;2023-11-19T12:08:50;9.35;;;5.20;;
80758;SDS011;70150;45.582;10.178;2023-11-19T12:11:16;11.52;;;5.38;;
80758;SDS011;70150;45.582;10.178;2023-11-19T12:16:14;9.15;;;5.47;;
80758;SDS011;70150;45.582;10.178;2023-11-19T12:18:40;11.40;;;5.72;;
80758;SDS011;70150;45.582;10.178;2023-11-19T12:21:06;9.20;;;5.47;;
80758;SDS011;70150;45.582;10.178;2023-11-19T12:23:34;10.60;;;5.95;;
80758;SDS011;70150;45.582;10.178;2023-11-19T12:26:00;9.85;;;5.72;;
80758;SDS011;70150;45.582;10.178;2023-11-19T12:28:25;8.90;;;5.80;;
80758;SDS011;70150;45.582;10.178;2023-11-19T12:30:52;9.40;;;5.65;;
80758;SDS011;70150;45.582;10.178;2023-11-19T12:33:18;11.35;;;5.90;;
80758;SDS011;70150;45.582;10.178;2023-11-19T12:35:45;9.93;;;5.85;;
80758;SDS011;70150;45.582;10.178;2023-11-19T12:40:46;10.27;;;6.55;;
80758;SDS011;70150;45.582;10.178;2023-11-19T12:43:20;12.65;;;6.80;;
80758;SDS011;70150;45.582;10.178;2023-11-19T12:45:47;10.45;;;6.93;;
80758;SDS011;70150;45.582;10.178;2023-11-19T12:48:13;10.63;;;7.13;;
80758;SDS011;70150;45.582;10.178;2023-11-19T12:53:10;12.93;;;8.23;;
80758;SDS011;70150;45.582;10.178;2023-11-19T12:55:36;12.15;;;7.78;;
80758;SDS011;70150;45.582;10.178;2023-11-19T12:58:01;12.05;;;7.75;;
80758;SDS011;70150;45.582;10.178;2023-11-19T13:00:27;13.75;;;8.95;;
80758;SDS011;70150;45.582;10.178;2023-11-19T13:02:54;14.45;;;8.93;;
80758;SDS011;70150;45.582;10.178;2023-11-19T13:07:48;15.45;;;9.25;;
80758;SDS011;70150;45.582;10.178;2023-11-19T13:10:14;13.85;;;9.35;;
80758;SDS011;70150;45.582;10.178;2023-11-19T13:12:40;13.18;;;8.98;;
80758;SDS011;70150;45.582;10.178;2023-11-19T13:15:06;17.00;;;10.15;;
80758;SDS011;70150;45.582;10.178;2023-11-19T13:17:47;15.30;;;9.48;;
80758;SDS011;70150;45.582;10.178;2023-11-19T13:20:12;15.15;;;9.60;;
80758;SDS011;70150;45.582;10.178;2023-11-19T13:22:53;13.32;;;9.25;;
80758;SDS011;70150;45.582;10.178;2023-11-19T13:25:20;12.98;;;9.43;;
80758;SDS011;70150;45.582;10.178;2023-11-19T13:27:46;14.32;;;9.05;;
80758;SDS011;70150;45.582;10.178;2023-11-19T13:30:12;12.63;;;8.80;;
80758;SDS011;70150;45.582;10.178;2023-11-19T13:32:38;16.20;;;9.20;;
80758;SDS011;70150;45.582;10.178;2023-11-19T13:35:04;12.40;;;8.50;;
80758;SDS011;70150;45.582;10.178;2023-11-19T13:37:30;13.70;;;8.25;;
80758;SDS011;70150;45.582;10.178;2023-11-19T13:39:56;13.68;;;8.35;;
80758;SDS011;70150;45.582;10.178;2023-11-19T13:42:22;12.65;;;7.90;;
80758;SDS011;70150;45.582;10.178;2023-11-19T13:44:48;12.63;;;7.65;;
80758;SDS011;70150;45.582;10.178;2023-11-19T13:47:14;10.93;;;7.32;;
80758;SDS011;70150;45.582;10.178;2023-11-19T13:49:40;12.32;;;7.38;;
80758;SDS011;70150;45.582;10.178;2023-11-19T13:52:06;13.02;;;7.80;;
80758;SDS011;70150;45.582;10.178;2023-11-19T13:54:31;12.30;;;7.38;;
80758;SDS011;70150;45.582;10.178;2023-11-19T13:56:57;10.95;;;7.00;;
80758;SDS011;70150;45.582;10.178;2023-11-19T13:59:24;17.27;;;7.70;;
80758;SDS011;70150;45.582;10.178;2023-11-19T14:01:49;12.07;;;7.88;;
80758;SDS011;70150;45.582;10.178;2023-11-19T14:04:15;10.48;;;7.25;;
80758;SDS011;70150;45.582;10.178;2023-11-19T14:06:40;11.63;;;6.88;;
80758;SDS011;70150;45.582;10.178;2023-11-19T14:09:06;11.23;;;7.18;;
80758;SDS011;70150;45.582;10.178;2023-11-19T14:11:32;11.93;;;7.03;;
80758;SDS011;70150;45.582;10.178;2023-11-19T14:13:58;13.73;;;7.03;;
80758;SDS011;70150;45.582;10.178;2023-11-19T14:18:52;10.75;;;7.22;;
80758;SDS011;70150;45.582;10.178;2023-11-19T14:21:18;13.38;;;7.55;;
80758;SDS011;70150;45.582;10.178;2023-11-19T14:23:43;10.25;;;6.90;;
80758;SDS011;70150;45.582;10.178;2023-11-19T14:26:11;13.80;;;7.65;;
80758;SDS011;70150;45.582;10.178;2023-11-19T14:28:37;11.48;;;7.22;;
80758;SDS011;70150;45.582;10.178;2023-11-19T14:31:03;12.40;;;7.70;;
80758;SDS011;70150;45.582;10.178;2023-11-19T14:33:29;12.00;;;7.97;;
80758;SDS011;70150;45.582;10.178;2023-11-19T14:35:55;10.98;;;7.43;;
80758;SDS011;70150;45.582;10.178;2023-11-19T14:38:21;10.65;;;7.15;;
80758;SDS011;70150;45.582;10.178;2023-11-19T14:40:46;12.10;;;7.25;;
80758;SDS011;70150;45.582;10.178;2023-11-19T14:43:13;11.27;;;7.15;;
80758;SDS011;70150;45.582;10.178;2023-11-19T14:45:40;14.10;;;7.82;;
80758;SDS011;70150;45.582;10.178;2023-11-19T14:48:06;11.93;;;6.95;;
80758;SDS011;70150;45.582;10.178;2023-11-19T14:50:31;11.23;;;6.80;;
80758;SDS011;70150;45.582;10.178;2023-11-19T14:52:57;12.10;;;6.72;;
80758;SDS011;70150;45.582;10.178;2023-11-19T14:55:23;12.55;;;7.28;;
80758;SDS011;70150;45.582;10.178;2023-11-19T14:57:49;16.40;;;7.15;;
80758;SDS011;70150;45.582;10.178;2023-11-19T15:00:16;12.98;;;6.78;;
80758;SDS011;70150;45.582;10.178;2023-11-19T15:02:42;12.35;;;6.35;;
80758;SDS011;70150;45.582;10.178;2023-11-19T15:05:10;10.38;;;6.43;;
80758;SDS011;70150;45.582;10.178;2023-11-19T15:07:36;15.05;;;6.82;;
80758;SDS011;70150;45.582;10.178;2023-11-19T15:10:03;12.45;;;6.60;;
80758;SDS011;70150;45.582;10.178;2023-11-19T15:12:34;11.77;;;6.85;;
80758;SDS011;70150;45.582;10.178;2023-11-19T15:15:00;13.43;;;7.32;;
80758;SDS011;70150;45.582;10.178;2023-11-19T15:17:26;13.90;;;6.88;;
80758;SDS011;70150;45.582;10.178;2023-11-19T15:19:51;10.95;;;7.22;;
80758;SDS011;70150;45.582;10.178;2023-11-19T15:22:17;14.48;;;7.35;;
80758;SDS011;70150;45.582;10.178;2023-11-19T15:24:43;11.48;;;7.13;;